createdAt,value
2022-08-03T00:01:32.289Z,1.60
2022-08-03T00:03:59.343Z,1.58
2022-08-03T00:06:26.353Z,1.38
2022-08-03T00:08:53.356Z,1.73
2022-08-03T00:11:20.385Z,1.60
2022-08-03T00:13:47.353Z,1.60
2022-08-03T00:16:14.523Z,1.70
2022-08-03T00:18:41.575Z,1.85
2022-08-03T00:21:09.070Z,2.03
2022-08-03T00:23:52.313Z,1.48
2022-08-03T00:26:20.826Z,1.50
2022-08-03T00:28:48.495Z,1.83
2022-08-03T00:31:15.524Z,1.83
2022-08-03T00:33:58.994Z,1.50
2022-08-03T00:36:28.131Z,1.35
2022-08-03T00:38:56.358Z,1.35
2022-08-03T00:41:23.349Z,1.52
2022-08-03T00:43:50.624Z,1.73
2022-08-03T00:46:21.360Z,1.88
2022-08-03T00:48:52.429Z,1.35
2022-08-03T00:51:21.557Z,2.03
2022-08-03T00:53:49.001Z,1.52
2022-08-03T00:56:17.450Z,1.70
2022-08-03T00:58:45.402Z,1.58
2022-08-03T01:01:12.931Z,1.70
2022-08-03T01:03:40.578Z,1.40
2022-08-03T01:06:10.764Z,1.40
2022-08-03T01:08:59.654Z,1.35
2022-08-03T01:11:29.511Z,1.45
2022-08-03T01:14:18.682Z,1.70
2022-08-03T01:17:44.130Z,1.40
2022-08-03T01:20:15.167Z,1.85
2022-08-03T01:23:03.676Z,1.52
2022-08-03T01:25:54.934Z,1.80
2022-08-03T01:29:03.341Z,1.55
2022-08-03T01:31:37.052Z,1.65
2022-08-03T01:34:31.467Z,1.90
2022-08-03T01:37:02.032Z,1.55
2022-08-03T01:39:31.921Z,2.00
2022-08-03T01:42:06.215Z,1.85
2022-08-03T01:44:38.357Z,1.48
2022-08-03T01:47:06.541Z,1.42
2022-08-03T01:49:38.998Z,1.40
2022-08-03T01:52:07.645Z,2.50
2022-08-03T01:54:45.387Z,1.80
2022-08-03T01:57:14.191Z,1.77
2022-08-03T01:59:43.141Z,1.83
2022-08-03T02:02:19.557Z,1.42
2022-08-03T02:05:01.621Z,1.77
2022-08-03T02:07:30.432Z,1.40
2022-08-03T02:09:59.837Z,1.75
2022-08-03T02:12:28.826Z,1.65
2022-08-03T02:14:59.937Z,1.40
2022-08-03T02:17:39.228Z,1.45
2022-08-03T02:20:09.115Z,1.38
2022-08-03T02:22:37.776Z,1.98
2022-08-03T02:25:05.118Z,2.05
2022-08-03T02:27:34.495Z,1.55
2022-08-03T02:30:09.403Z,2.30
2022-08-03T02:32:39.411Z,1.42
2022-08-03T02:35:13.326Z,1.50
2022-08-03T02:37:49.812Z,1.77
2022-08-03T02:40:19.424Z,1.58
2022-08-03T02:42:49.423Z,1.80
2022-08-03T02:45:18.354Z,2.22
2022-08-03T02:47:54.345Z,1.80
2022-08-03T02:50:23.902Z,1.58
2022-08-03T02:52:53.278Z,1.60
2022-08-03T02:55:22.459Z,1.95
2022-08-03T02:57:51.007Z,2.58
2022-08-03T03:00:19.634Z,1.55
2022-08-03T03:03:01.464Z,2.08
2022-08-03T03:05:55.449Z,1.60
2022-08-03T03:08:20.824Z,2.25
2022-08-03T03:10:55.529Z,2.20
2022-08-03T03:13:23.439Z,1.60
2022-08-03T03:15:52.196Z,1.85
2022-08-03T03:18:22.741Z,2.10
2022-08-03T03:20:52.634Z,1.73
2022-08-03T03:23:24.891Z,1.70
2022-08-03T03:25:52.996Z,1.70
2022-08-03T03:28:20.855Z,1.85
2022-08-03T03:30:52.810Z,1.67
2022-08-03T03:33:21.755Z,1.48
2022-08-03T03:35:48.981Z,1.50
2022-08-03T03:38:16.081Z,1.80
2022-08-03T03:40:43.458Z,1.70
2022-08-03T03:43:12.134Z,1.83
2022-08-03T03:45:41.955Z,1.70
2022-08-03T03:48:09.066Z,1.90
2022-08-03T03:50:37.505Z,1.92
2022-08-03T03:53:04.882Z,1.85
2022-08-03T03:55:31.931Z,1.83
2022-08-03T03:57:59.613Z,2.45
2022-08-03T04:00:26.533Z,1.70
2022-08-03T04:02:53.506Z,1.50
2022-08-03T04:05:42.875Z,2.13
2022-08-03T04:08:36.252Z,1.80
2022-08-03T04:11:30.271Z,1.60
2022-08-03T04:14:04.944Z,1.80
2022-08-03T04:16:35.579Z,1.55
2022-08-03T04:19:08.174Z,1.60
2022-08-03T04:21:38.225Z,1.90
2022-08-03T04:24:08.553Z,1.70
2022-08-03T04:26:39.833Z,1.95
2022-08-03T04:29:09.406Z,1.67
2022-08-03T04:31:38.509Z,1.73
2022-08-03T04:34:06.085Z,1.60
2022-08-03T04:36:37.171Z,1.83
2022-08-03T04:39:17.019Z,1.70
2022-08-03T04:42:04.733Z,2.22
2022-08-03T04:44:37.746Z,1.80
2022-08-03T04:47:04.794Z,1.63
2022-08-03T04:49:32.671Z,1.85
2022-08-03T04:51:59.845Z,2.05
2022-08-03T04:54:26.795Z,1.63
2022-08-03T04:56:53.745Z,1.60
2022-08-03T04:59:20.698Z,1.60
2022-08-03T05:01:47.756Z,1.20
2022-08-03T05:04:15.255Z,1.50
2022-08-03T05:06:48.045Z,1.50
2022-08-03T05:09:15.460Z,1.73
2022-08-03T05:12:02.466Z,1.70
2022-08-03T05:14:29.383Z,1.90
2022-08-03T05:16:56.331Z,1.90
2022-08-03T05:19:23.287Z,1.77
2022-08-03T05:21:52.581Z,1.92
2022-08-03T05:24:20.023Z,1.98
2022-08-03T05:26:47.061Z,1.65
2022-08-03T05:29:14.027Z,1.55
2022-08-03T05:31:40.947Z,1.83
2022-08-03T05:34:08.367Z,1.70
2022-08-03T05:36:35.287Z,1.95
2022-08-03T05:39:02.882Z,2.35
2022-08-03T05:41:36.570Z,2.63
2022-08-03T05:44:05.054Z,1.80
2022-08-03T05:46:32.297Z,1.80
2022-08-03T05:48:59.486Z,2.15
2022-08-03T05:51:26.580Z,2.40
2022-08-03T05:53:53.562Z,1.90
2022-08-03T05:56:25.244Z,2.35
2022-08-03T05:58:52.786Z,2.78
2022-08-03T06:01:22.059Z,3.00
2022-08-03T06:03:50.436Z,2.67
2022-08-03T06:06:17.926Z,2.20
2022-08-03T06:08:46.148Z,2.15
2022-08-03T06:11:13.570Z,2.10
2022-08-03T06:13:41.158Z,2.67
2022-08-03T06:16:08.196Z,2.45
2022-08-03T06:18:35.866Z,2.83
2022-08-03T06:21:14.801Z,2.83
2022-08-03T06:23:54.418Z,3.00
2022-08-03T06:26:24.120Z,2.60
2022-08-03T06:28:53.329Z,2.85
2022-08-03T06:31:26.209Z,3.05
2022-08-03T06:34:33.638Z,3.15
2022-08-03T06:36:50.991Z,3.30
2022-08-03T06:39:20.017Z,3.40
2022-08-03T06:41:46.943Z,3.13
2022-08-03T06:44:13.961Z,2.67
2022-08-03T06:46:41.092Z,2.67
2022-08-03T06:49:08.415Z,3.05
2022-08-03T06:52:03.276Z,2.78
2022-08-03T06:54:22.420Z,2.38
2022-08-03T06:56:49.370Z,2.60
2022-08-03T07:00:06.512Z,2.20
2022-08-03T07:02:03.838Z,2.33
2022-08-03T07:04:30.977Z,3.10
2022-08-03T07:06:58.597Z,2.53
2022-08-03T07:09:26.908Z,2.50
2022-08-03T07:11:54.596Z,2.60
2022-08-03T07:14:21.929Z,2.35
2022-08-03T07:16:48.952Z,2.28
2022-08-03T07:19:16.139Z,2.47
2022-08-03T07:21:43.103Z,2.28
2022-08-03T07:24:10.029Z,2.03
2022-08-03T07:26:37.095Z,2.10
2022-08-03T07:29:04.208Z,2.60
2022-08-03T07:31:42.321Z,2.28
2022-08-03T07:34:09.256Z,2.15
2022-08-03T07:36:36.318Z,1.85
2022-08-03T07:39:17.908Z,2.65
2022-08-03T07:41:46.040Z,2.42
2022-08-03T07:44:13.365Z,1.88
2022-08-03T07:46:40.303Z,1.88
2022-08-03T07:49:07.299Z,2.30
2022-08-03T07:51:34.446Z,1.65
2022-08-03T07:54:01.537Z,2.20
2022-08-03T07:56:28.768Z,2.30
2022-08-03T07:58:56.199Z,2.92
2022-08-03T08:01:23.453Z,1.80
2022-08-03T08:03:53.238Z,1.95
2022-08-03T08:06:21.719Z,1.80
2022-08-03T08:08:48.771Z,2.17
2022-08-03T08:11:15.845Z,1.55
2022-08-03T08:13:42.966Z,1.80
2022-08-03T08:16:12.685Z,1.80
2022-08-03T08:18:39.631Z,2.15
2022-08-03T08:21:06.924Z,1.63
2022-08-03T08:23:42.442Z,1.30
2022-08-03T08:26:11.062Z,1.45
2022-08-03T08:28:38.190Z,1.42
2022-08-03T08:31:05.178Z,1.73
2022-08-03T08:34:02.727Z,1.88
2022-08-03T08:36:22.117Z,1.98
2022-08-03T08:38:49.147Z,1.40
2022-08-03T08:41:17.056Z,1.55
2022-08-03T08:43:44.086Z,1.40
2022-08-03T08:46:13.069Z,6.60
2022-08-03T08:48:51.506Z,2.22
2022-08-03T08:51:20.933Z,2.00
2022-08-03T08:53:53.813Z,1.50
2022-08-03T08:56:25.581Z,1.45
2022-08-03T08:58:58.083Z,1.73
2022-08-03T09:01:25.228Z,1.67
2022-08-03T09:03:54.184Z,1.60
2022-08-03T09:06:22.110Z,1.52
2022-08-03T09:08:49.237Z,1.42
2022-08-03T09:11:16.232Z,1.92
2022-08-03T09:13:43.184Z,1.67
2022-08-03T09:16:12.566Z,1.45
2022-08-03T09:18:40.385Z,1.30
2022-08-03T09:21:34.968Z,1.52
2022-08-03T09:24:05.890Z,1.55
2022-08-03T09:26:36.149Z,1.25
2022-08-03T09:29:13.884Z,1.55
2022-08-03T09:31:47.052Z,1.60
2022-08-03T09:34:16.284Z,1.50
2022-08-03T09:36:48.087Z,1.55
2022-08-03T09:39:37.512Z,1.50
2022-08-03T09:42:09.060Z,1.20
2022-08-03T09:44:43.901Z,1.25
2022-08-03T09:47:12.732Z,1.13
2022-08-03T09:49:41.797Z,1.52
2022-08-03T09:52:37.819Z,1.40
2022-08-03T09:55:23.394Z,1.38
2022-08-03T09:58:07.069Z,1.15
2022-08-03T10:00:59.609Z,1.40
2022-08-03T10:03:29.801Z,1.30
2022-08-03T10:05:59.835Z,1.40
2022-08-03T10:08:27.259Z,1.23
2022-08-03T10:10:54.768Z,1.10
2022-08-03T10:13:23.396Z,1.10
2022-08-03T10:16:23.117Z,1.30
2022-08-03T10:18:37.899Z,1.10
2022-08-03T10:21:10.444Z,1.00
2022-08-03T10:23:40.109Z,1.35
2022-08-03T10:26:08.394Z,1.05
2022-08-03T10:28:44.516Z,1.15
2022-08-03T10:31:14.104Z,1.08
2022-08-03T10:33:52.866Z,1.50
2022-08-03T10:36:25.038Z,1.08
2022-08-03T10:38:53.764Z,1.10
2022-08-03T10:41:23.328Z,1.48
2022-08-03T10:44:02.186Z,1.30
2022-08-03T10:46:29.408Z,1.63
2022-08-03T10:48:57.052Z,1.40
2022-08-03T10:51:25.025Z,1.30
2022-08-03T10:53:54.614Z,1.35
2022-08-03T10:56:54.612Z,1.40
2022-08-03T10:59:46.690Z,1.33
2022-08-03T11:02:15.487Z,1.40
2022-08-03T11:04:44.773Z,1.10
2022-08-03T11:07:17.951Z,1.30
2022-08-03T11:09:50.662Z,1.30
2022-08-03T11:12:30.037Z,1.17
2022-08-03T11:15:07.680Z,1.27
2022-08-03T11:17:46.433Z,1.35
2022-08-03T11:20:48.772Z,1.85
2022-08-03T11:23:17.328Z,1.83
2022-08-03T11:26:13.056Z,2.05
2022-08-03T11:28:41.112Z,1.50
2022-08-03T11:31:48.014Z,1.27
2022-08-03T11:34:13.033Z,1.10
2022-08-03T11:37:17.628Z,1.45
2022-08-03T11:39:47.493Z,1.15
2022-08-03T11:42:26.298Z,1.55
2022-08-03T11:44:58.547Z,1.27
2022-08-03T11:47:27.963Z,1.33
2022-08-03T11:50:00.755Z,1.35
2022-08-03T11:52:33.880Z,1.45
2022-08-03T11:55:01.916Z,1.20
2022-08-03T11:59:01.775Z,1.10
2022-08-03T12:00:26.677Z,1.30
2022-08-03T12:05:40.459Z,1.40
2022-08-03T12:08:08.683Z,1.40
2022-08-03T12:10:37.086Z,1.25
2022-08-03T12:14:36.707Z,1.45
2022-08-03T12:15:56.099Z,1.20
2022-08-03T12:18:24.345Z,1.50
2022-08-03T12:20:54.315Z,1.10
2022-08-03T12:23:21.349Z,1.30
2022-08-03T12:25:49.557Z,1.20
2022-08-03T12:28:37.128Z,1.13
2022-08-03T12:31:09.536Z,0.93
2022-08-03T12:34:00.338Z,1.25
2022-08-03T12:36:28.527Z,1.20
2022-08-03T12:39:04.939Z,1.42
2022-08-03T12:41:35.469Z,1.00
2022-08-03T12:44:04.407Z,1.08
2022-08-03T12:46:34.210Z,1.23
2022-08-03T12:49:05.892Z,0.98
2022-08-03T12:51:54.395Z,1.10
2022-08-03T12:54:27.169Z,1.20
2022-08-03T12:57:15.804Z,1.30
2022-08-03T12:59:53.257Z,1.10
2022-08-03T13:02:23.703Z,1.20
2022-08-03T13:04:52.853Z,1.08
2022-08-03T13:07:21.018Z,1.13
2022-08-03T13:09:53.258Z,1.10
2022-08-03T13:12:22.994Z,1.08
2022-08-03T13:14:53.711Z,1.13
2022-08-03T13:17:21.384Z,1.08
2022-08-03T13:19:49.348Z,1.17
2022-08-03T13:22:18.549Z,1.50
2022-08-03T13:24:47.264Z,1.20
2022-08-03T13:28:01.165Z,1.17
2022-08-03T13:30:01.788Z,1.20
2022-08-03T13:32:28.726Z,1.40
2022-08-03T13:34:55.724Z,0.95
2022-08-03T13:37:23.097Z,1.05
2022-08-03T13:39:59.801Z,1.13
2022-08-03T13:42:29.695Z,1.10
2022-08-03T13:44:56.693Z,1.40
2022-08-03T13:47:23.751Z,1.48
2022-08-03T13:49:59.650Z,1.60
2022-08-03T13:52:34.011Z,1.42
2022-08-03T13:55:01.832Z,1.03
2022-08-03T13:58:11.349Z,1.05
2022-08-03T14:00:28.097Z,1.20
2022-08-03T14:03:04.011Z,1.10
2022-08-03T14:05:32.982Z,1.17
2022-08-03T14:08:05.658Z,1.20
2022-08-03T14:10:34.464Z,1.23
2022-08-03T14:13:01.622Z,1.27
2022-08-03T14:15:29.059Z,1.40
2022-08-03T14:17:58.710Z,1.20
2022-08-03T14:20:37.926Z,1.40
2022-08-03T14:23:07.145Z,1.42
2022-08-03T14:25:44.261Z,1.58
2022-08-03T14:28:19.162Z,1.48
2022-08-03T14:30:46.268Z,1.23
2022-08-03T14:33:13.215Z,1.25
2022-08-03T14:35:40.365Z,1.40
2022-08-03T14:38:07.348Z,1.30
2022-08-03T14:40:34.364Z,1.52
2022-08-03T14:43:02.486Z,1.40
2022-08-03T14:45:29.471Z,1.30
2022-08-03T14:50:29.464Z,1.70
2022-08-03T14:50:50.344Z,1.50
2022-08-03T14:53:18.869Z,1.40
2022-08-03T14:55:50.713Z,1.20
2022-08-03T14:58:21.125Z,1.27
2022-08-03T15:00:50.332Z,1.35
2022-08-03T15:03:20.491Z,1.30
2022-08-03T15:05:47.732Z,1.30
2022-08-03T15:08:14.734Z,1.50
2022-08-03T15:10:44.931Z,1.20
2022-08-03T15:13:13.482Z,1.20
2022-08-03T15:15:41.169Z,1.17
2022-08-03T15:18:08.570Z,1.30
2022-08-03T15:20:44.534Z,1.17
2022-08-03T15:23:13.301Z,1.20
2022-08-03T15:26:03.894Z,1.20
2022-08-03T15:28:27.199Z,0.98
2022-08-03T15:30:54.274Z,1.27
2022-08-03T15:33:21.225Z,1.40
2022-08-03T15:35:48.430Z,1.00
2022-08-03T15:38:15.690Z,1.38
2022-08-03T15:40:42.646Z,1.08
2022-08-03T15:43:09.708Z,1.40
2022-08-03T15:45:37.198Z,1.20
2022-08-03T15:48:08.164Z,1.20
2022-08-03T15:50:35.241Z,1.05
2022-08-03T15:53:02.182Z,1.33
2022-08-03T15:55:29.496Z,1.10
2022-08-03T15:59:03.801Z,1.13
2022-08-03T16:00:43.731Z,1.02
2022-08-03T16:03:10.819Z,1.55
2022-08-03T16:05:37.889Z,1.10
2022-08-03T16:08:07.100Z,1.20
2022-08-03T16:10:37.351Z,1.27
2022-08-03T16:13:04.257Z,1.80
2022-08-03T16:15:31.260Z,1.10
2022-08-03T16:17:58.252Z,1.52
2022-08-03T16:20:31.668Z,1.77
2022-08-03T16:23:10.834Z,1.10
2022-08-03T16:25:44.409Z,0.95
2022-08-03T16:28:17.338Z,1.00
2022-08-03T16:30:45.684Z,1.30
2022-08-03T16:33:16.987Z,1.13
2022-08-03T16:35:45.968Z,1.42
2022-08-03T16:38:18.608Z,1.20
2022-08-03T16:40:47.300Z,1.48
2022-08-03T16:43:18.302Z,1.00
2022-08-03T16:45:47.220Z,1.20
2022-08-03T16:48:15.368Z,1.50
2022-08-03T16:50:42.451Z,1.58
2022-08-03T16:53:16.619Z,1.20
2022-08-03T16:55:58.026Z,1.20
2022-08-03T16:58:41.307Z,1.10
2022-08-03T17:01:22.097Z,1.23
2022-08-03T17:04:03.491Z,1.10
2022-08-03T17:06:35.435Z,1.20
2022-08-03T17:09:09.482Z,1.25
2022-08-03T17:11:44.065Z,1.10
2022-08-03T17:14:21.940Z,1.35
2022-08-03T17:16:54.087Z,1.10
2022-08-03T17:19:23.760Z,1.60
2022-08-03T17:22:04.201Z,1.30
2022-08-03T17:24:34.957Z,1.52
2022-08-03T17:27:09.257Z,1.35
2022-08-03T17:30:07.668Z,1.63
2022-08-03T17:32:42.447Z,1.60
2022-08-03T17:35:11.166Z,1.48
2022-08-03T17:37:58.671Z,2.10
2022-08-03T17:40:25.786Z,1.60
2022-08-03T17:42:53.237Z,1.35
2022-08-03T17:45:20.696Z,1.40
2022-08-03T17:47:57.112Z,1.40
2022-08-03T17:50:35.363Z,1.10
2022-08-03T17:53:23.471Z,1.13
2022-08-03T17:56:42.648Z,1.42
2022-08-03T17:59:51.538Z,1.17
2022-08-03T18:02:40.501Z,1.80
2022-08-03T18:05:17.679Z,1.95
2022-08-03T18:07:47.638Z,1.20
2022-08-03T18:10:28.310Z,1.40
2022-08-03T18:13:10.427Z,1.10
2022-08-03T18:15:42.776Z,1.30
2022-08-03T18:18:14.071Z,1.30
2022-08-03T18:20:45.722Z,1.00
2022-08-03T18:26:10.760Z,1.10
2022-08-03T18:28:40.616Z,1.25
2022-08-03T18:31:11.561Z,0.98
2022-08-03T18:34:19.155Z,1.10
2022-08-03T18:36:29.696Z,1.60
2022-08-03T18:38:59.518Z,1.50
2022-08-03T18:41:32.364Z,1.20
2022-08-03T18:44:09.533Z,0.98
2022-08-03T18:47:16.193Z,1.50
2022-08-03T18:50:19.311Z,1.55
2022-08-03T18:52:54.078Z,1.50
2022-08-03T18:55:35.842Z,1.45
2022-08-03T18:58:18.369Z,1.35
2022-08-03T19:01:03.605Z,1.35
2022-08-03T19:03:43.219Z,1.45
2022-08-03T19:06:24.226Z,1.70
2022-08-03T19:09:05.374Z,1.42
2022-08-03T19:12:12.394Z,1.77
2022-08-03T19:14:43.261Z,1.63
2022-08-03T19:19:44.913Z,1.70
2022-08-03T19:22:16.308Z,1.63
2022-08-03T19:24:46.357Z,2.08
2022-08-03T19:27:14.240Z,1.75
2022-08-03T19:29:58.515Z,1.80
2022-08-03T19:34:59.915Z,1.65
2022-08-03T19:37:33.280Z,1.38
2022-08-03T19:40:10.956Z,1.17
2022-08-03T19:42:44.472Z,1.38
2022-08-03T19:48:09.991Z,1.38
2022-08-03T19:53:13.443Z,1.65
2022-08-03T19:55:49.083Z,1.23
2022-08-03T20:01:19.367Z,1.40
2022-08-03T20:03:49.506Z,1.35
2022-08-03T20:06:18.055Z,1.30
2022-08-03T20:08:51.472Z,1.63
2022-08-03T20:11:20.051Z,1.35
2022-08-03T20:13:49.827Z,1.52
2022-08-03T20:16:16.830Z,1.63
2022-08-03T20:18:44.391Z,1.23
2022-08-03T20:21:15.613Z,1.45
2022-08-03T20:24:00.054Z,1.30
2022-08-03T20:26:31.027Z,1.50
2022-08-03T20:29:10.122Z,1.60
2022-08-03T20:31:37.705Z,1.23
2022-08-03T20:34:06.464Z,1.38
2022-08-03T20:36:33.502Z,1.50
2022-08-03T20:39:00.568Z,1.52
2022-08-03T20:41:27.667Z,1.50
2022-08-03T20:43:59.287Z,1.58
2022-08-03T20:46:31.889Z,1.50
2022-08-03T20:49:05.069Z,1.05
2022-08-03T20:51:50.626Z,1.15
2022-08-03T20:54:30.951Z,1.40
2022-08-03T20:57:04.446Z,1.27
2022-08-03T20:59:50.092Z,1.35
2022-08-03T21:02:29.471Z,1.25
2022-08-03T21:05:03.804Z,1.80
2022-08-03T21:08:06.358Z,1.40
2022-08-03T21:10:35.853Z,1.60
2022-08-03T21:13:05.597Z,1.15
2022-08-03T21:13:08.461Z,1.30
2022-08-03T21:13:11.013Z,1.85
2022-08-03T21:13:23.512Z,1.30
2022-08-03T21:16:03.281Z,1.50
2022-08-03T21:18:52.411Z,1.45
2022-08-03T21:21:22.431Z,1.70
2022-08-03T21:23:52.922Z,1.80
2022-08-03T21:26:25.511Z,2.10
2022-08-03T21:28:55.209Z,1.70
2022-08-03T21:31:25.449Z,2.00
2022-08-03T21:33:58.167Z,1.77
2022-08-03T21:36:27.902Z,1.83
2022-08-03T21:38:57.598Z,1.67
2022-08-03T21:41:27.223Z,1.80
2022-08-03T21:43:54.218Z,2.40
2022-08-03T21:46:22.499Z,1.65
2022-08-03T21:48:54.765Z,1.73
2022-08-03T21:51:25.525Z,2.13
2022-08-03T21:54:03.417Z,2.08
2022-08-03T21:56:41.685Z,1.90
2022-08-03T21:59:16.040Z,2.00
2022-08-03T22:01:45.600Z,1.80
2022-08-03T22:04:50.603Z,2.47
2022-08-03T22:07:07.050Z,2.13
2022-08-03T22:09:35.333Z,2.50
2022-08-03T22:12:02.605Z,2.05
2022-08-03T22:14:32.222Z,2.38
2022-08-03T22:17:01.014Z,2.20
2022-08-03T22:19:33.378Z,2.03
2022-08-03T22:22:01.551Z,2.20
2022-08-03T22:24:32.065Z,2.55
2022-08-03T22:27:21.295Z,2.60
2022-08-03T22:29:51.021Z,2.10
2022-08-03T22:32:17.982Z,2.30
2022-08-03T22:34:46.948Z,2.33
2022-08-03T22:37:17.080Z,1.83
2022-08-03T22:39:44.787Z,2.20
2022-08-03T22:42:12.821Z,2.20
2022-08-03T22:44:40.688Z,2.30
2022-08-03T22:47:09.650Z,2.08
2022-08-03T22:49:37.899Z,2.65
2022-08-03T22:52:07.484Z,2.08
2022-08-03T22:54:36.139Z,2.40
2022-08-03T22:57:04.664Z,2.28
2022-08-03T22:59:40.257Z,2.85
2022-08-03T23:02:20.935Z,2.22
2022-08-03T23:04:57.027Z,2.38
2022-08-03T23:07:36.547Z,2.20
2022-08-03T23:10:10.886Z,2.03
2022-08-03T23:12:39.846Z,1.98
2022-08-03T23:15:13.702Z,2.60
2022-08-03T23:17:57.889Z,2.20
2022-08-03T23:20:27.044Z,1.98
2022-08-03T23:22:57.847Z,2.13
2022-08-03T23:25:25.251Z,2.45
2022-08-03T23:28:04.935Z,2.00
2022-08-03T23:30:37.212Z,1.80
2022-08-03T23:33:05.269Z,2.20
2022-08-03T23:36:18.755Z,1.95
2022-08-03T23:38:37.794Z,1.95
2022-08-03T23:41:05.305Z,1.98
2022-08-03T23:43:51.477Z,2.10
2022-08-03T23:46:21.246Z,2.20
2022-08-03T23:48:48.660Z,2.22
2022-08-03T23:51:33.839Z,2.22
2022-08-03T23:54:12.490Z,1.90
2022-08-03T23:56:55.413Z,2.25
2022-08-03T23:59:31.172Z,1.83
